createdAt,value
2019-02-02T00:01:20.415Z,26.77
2019-02-02T00:04:08.737Z,27.00
2019-02-02T00:06:58.575Z,26.73
2019-02-02T00:09:47.952Z,26.00
2019-02-02T00:12:36.894Z,26.50
2019-02-02T00:15:24.783Z,26.13
2019-02-02T00:18:13.184Z,26.73
2019-02-02T00:21:01.428Z,26.33
2019-02-02T00:23:50.122Z,30.10
2019-02-02T00:26:38.625Z,26.57
2019-02-02T00:29:26.722Z,25.40
2019-02-02T00:32:15.537Z,25.90
2019-02-02T00:35:04.406Z,25.63
2019-02-02T00:37:52.672Z,24.03
2019-02-02T00:40:41.247Z,24.10
2019-02-02T00:43:30.263Z,25.97
2019-02-02T00:46:19.070Z,26.00
2019-02-02T00:49:08.489Z,25.93
2019-02-02T00:51:56.829Z,26.23
2019-02-02T00:54:45.708Z,24.53
2019-02-02T00:57:34.396Z,26.03
2019-02-02T01:00:22.843Z,23.73
2019-02-02T01:03:11.123Z,24.80
2019-02-02T01:06:00.378Z,24.50
2019-02-02T01:08:48.821Z,24.87
2019-02-02T01:11:37.174Z,25.73
2019-02-02T01:14:27.030Z,26.67
2019-02-02T01:17:15.622Z,24.63
2019-02-02T01:20:05.138Z,25.67
2019-02-02T01:22:54.016Z,25.00
2019-02-02T01:25:43.283Z,24.23
2019-02-02T01:28:31.933Z,24.07
2019-02-02T01:31:21.283Z,25.30
2019-02-02T01:34:09.622Z,25.37
2019-02-02T01:36:57.869Z,24.97
2019-02-02T01:39:46.473Z,23.77
2019-02-02T01:42:35.655Z,24.63
2019-02-02T01:45:25.432Z,23.73
2019-02-02T01:48:14.697Z,24.17
2019-02-02T01:51:03.593Z,24.60
2019-02-02T01:53:52.202Z,24.47
2019-02-02T01:56:40.780Z,23.90
2019-02-02T01:59:29.458Z,23.50
2019-02-02T02:02:18.432Z,24.77
2019-02-02T02:05:08.053Z,23.47
2019-02-02T02:07:57.659Z,23.87
2019-02-02T02:10:47.046Z,25.13
2019-02-02T02:13:35.584Z,24.97
2019-02-02T02:16:24.451Z,24.40
2019-02-02T02:19:13.742Z,23.37
2019-02-02T02:22:02.495Z,24.80
2019-02-02T02:24:53.508Z,24.80
2019-02-02T02:27:42.075Z,25.30
2019-02-02T02:30:31.120Z,24.37
2019-02-02T02:33:20.531Z,24.67
2019-02-02T02:36:09.483Z,24.27
2019-02-02T02:38:58.150Z,24.97
2019-02-02T02:41:46.469Z,25.63
2019-02-02T02:44:35.161Z,25.43
2019-02-02T02:47:23.777Z,24.80
2019-02-02T02:50:13.994Z,23.73
2019-02-02T02:53:02.838Z,25.30
2019-02-02T02:55:51.724Z,23.27
2019-02-02T02:58:41.916Z,25.40
2019-02-02T03:01:30.337Z,26.70
2019-02-02T03:04:19.398Z,25.00
2019-02-02T03:07:08.126Z,24.93
2019-02-02T03:09:56.810Z,24.43
2019-02-02T03:12:45.299Z,23.90
2019-02-02T03:15:34.013Z,23.53
2019-02-02T03:18:24.034Z,24.53
2019-02-02T03:21:12.249Z,24.00
2019-02-02T03:24:00.079Z,24.37
2019-02-02T03:26:48.589Z,23.17
2019-02-02T03:29:37.426Z,23.03
2019-02-02T03:32:26.105Z,23.90
2019-02-02T03:35:15.822Z,23.47
2019-02-02T03:38:04.816Z,23.90
2019-02-02T03:40:53.973Z,23.70
2019-02-02T03:43:42.996Z,22.00
2019-02-02T03:46:31.627Z,22.77
2019-02-02T03:49:19.496Z,23.47
2019-02-02T03:52:08.005Z,22.53
2019-02-02T03:54:56.622Z,23.03
2019-02-02T03:57:45.369Z,22.77
2019-02-02T04:00:34.073Z,23.50
2019-02-02T04:03:22.386Z,22.83
2019-02-02T04:06:11.364Z,22.50
2019-02-02T04:08:59.983Z,22.37
2019-02-02T04:11:49.060Z,22.17
2019-02-02T04:14:37.310Z,22.43
2019-02-02T04:17:25.385Z,23.03
2019-02-02T04:20:18.688Z,23.27
2019-02-02T04:23:07.250Z,22.17
2019-02-02T04:25:58.438Z,22.03
2019-02-02T04:28:47.302Z,22.43
2019-02-02T04:31:35.963Z,22.00
2019-02-02T04:34:24.759Z,22.53
2019-02-02T04:37:14.057Z,21.97
2019-02-02T04:40:03.105Z,21.93
2019-02-02T04:42:51.663Z,22.10
2019-02-02T04:45:39.756Z,22.43
2019-02-02T04:48:32.409Z,21.80
2019-02-02T04:51:19.382Z,20.60
2019-02-02T04:54:08.110Z,20.87
2019-02-02T04:56:56.327Z,20.03
2019-02-02T04:59:44.699Z,21.17
2019-02-02T05:02:33.652Z,20.13
2019-02-02T05:05:22.006Z,20.37
2019-02-02T05:08:10.967Z,20.23
2019-02-02T05:10:59.464Z,19.47
2019-02-02T05:13:48.553Z,19.70
2019-02-02T05:16:37.310Z,20.73
2019-02-02T05:19:26.672Z,20.27
2019-02-02T05:22:15.218Z,21.00
2019-02-02T05:25:05.035Z,20.33
2019-02-02T05:27:54.043Z,20.53
2019-02-02T05:30:42.453Z,20.43
2019-02-02T05:33:32.117Z,21.37
2019-02-02T05:36:20.491Z,20.67
2019-02-02T05:39:09.953Z,20.90
2019-02-02T05:41:58.561Z,20.53
2019-02-02T05:44:47.046Z,21.60
2019-02-02T05:47:35.753Z,21.53
2019-02-02T05:50:23.878Z,22.00
2019-02-02T05:53:13.276Z,21.30
2019-02-02T05:56:01.913Z,20.97
2019-02-02T05:58:50.755Z,22.10
2019-02-02T06:01:39.085Z,22.20
2019-02-02T06:04:26.986Z,23.07
2019-02-02T06:07:16.166Z,22.10
2019-02-02T06:10:04.493Z,22.50
2019-02-02T06:12:52.824Z,24.33
2019-02-02T06:15:41.686Z,24.23
2019-02-02T06:18:30.598Z,24.50
2019-02-02T06:21:18.963Z,25.33
2019-02-02T06:24:07.601Z,25.13
2019-02-02T06:26:56.971Z,25.73
2019-02-02T06:29:45.846Z,26.90
2019-02-02T06:32:34.014Z,26.67
2019-02-02T06:35:22.738Z,26.83
2019-02-02T06:38:11.129Z,26.37
2019-02-02T06:41:00.284Z,26.53
2019-02-02T06:43:49.337Z,26.47
2019-02-02T06:46:43.753Z,26.17
2019-02-02T06:49:28.038Z,26.90
2019-02-02T06:52:17.067Z,25.80
2019-02-02T06:55:06.413Z,28.10
2019-02-02T06:57:55.885Z,27.87
2019-02-02T07:00:44.607Z,26.93
2019-02-02T07:03:33.401Z,27.57
2019-02-02T07:06:23.348Z,25.93
2019-02-02T07:09:12.046Z,27.10
2019-02-02T07:12:01.026Z,28.17
2019-02-02T07:14:50.104Z,28.70
2019-02-02T07:17:39.247Z,28.10
2019-02-02T07:20:28.849Z,27.53
2019-02-02T07:23:17.092Z,28.20
2019-02-02T07:26:05.895Z,27.67
2019-02-02T07:28:55.127Z,37.70
2019-02-02T07:31:44.531Z,30.23
2019-02-02T07:34:33.486Z,27.90
2019-02-02T07:37:22.129Z,29.07
2019-02-02T07:40:12.321Z,33.13
2019-02-02T07:43:00.664Z,28.57
2019-02-02T07:45:49.814Z,33.50
2019-02-02T07:48:38.600Z,36.60
2019-02-02T07:51:27.185Z,27.87
2019-02-02T07:54:16.430Z,26.97
2019-02-02T07:57:05.547Z,27.40
2019-02-02T07:59:55.267Z,25.63
2019-02-02T08:02:44.153Z,25.30
2019-02-02T08:05:32.555Z,24.63
2019-02-02T08:08:21.393Z,26.63
2019-02-02T08:11:09.942Z,25.33
2019-02-02T08:14:03.465Z,25.73
2019-02-02T08:16:52.667Z,23.37
2019-02-02T08:19:41.650Z,24.87
2019-02-02T08:22:29.724Z,25.13
2019-02-02T08:25:17.876Z,24.20
2019-02-02T08:28:07.031Z,22.53
2019-02-02T08:30:56.215Z,20.83
2019-02-02T08:33:45.501Z,23.90
2019-02-02T08:36:34.463Z,22.53
2019-02-02T08:39:29.207Z,24.10
2019-02-02T08:42:14.507Z,23.47
2019-02-02T08:45:04.284Z,38.80
2019-02-02T08:47:52.575Z,31.23
2019-02-02T08:50:42.472Z,24.60
2019-02-02T08:53:31.869Z,22.93
2019-02-02T08:56:20.394Z,18.33
2019-02-02T08:59:10.230Z,16.67
2019-02-02T09:01:59.237Z,29.13
2019-02-02T09:04:48.002Z,24.97
2019-02-02T09:07:38.449Z,21.67
2019-02-02T09:10:29.419Z,21.27
2019-02-02T09:13:19.062Z,21.70
2019-02-02T09:16:09.247Z,24.53
2019-02-02T09:18:58.102Z,20.93
2019-02-02T09:21:47.269Z,26.40
2019-02-02T09:24:36.055Z,22.57
2019-02-02T09:27:24.995Z,20.50
2019-02-02T09:30:22.555Z,17.67
2019-02-02T09:33:11.085Z,15.87
2019-02-02T09:36:00.554Z,14.37
2019-02-02T09:38:51.044Z,12.87
2019-02-02T09:41:40.914Z,14.13
2019-02-02T09:44:31.802Z,10.67
2019-02-02T09:47:20.776Z,9.10
2019-02-02T09:50:11.554Z,8.00
2019-02-02T09:53:02.455Z,7.77
2019-02-02T09:55:51.216Z,7.10
2019-02-02T09:58:40.031Z,7.33
2019-02-02T10:01:28.782Z,7.30
2019-02-02T10:04:17.512Z,7.20
2019-02-02T10:07:06.170Z,7.33
2019-02-02T10:09:54.563Z,7.63
2019-02-02T10:12:42.970Z,7.23
2019-02-02T10:15:31.305Z,7.90
2019-02-02T10:18:20.436Z,7.03
2019-02-02T10:21:14.905Z,11.97
2019-02-02T10:24:03.604Z,8.60
2019-02-02T10:26:52.455Z,8.73
2019-02-02T10:29:40.747Z,7.27
2019-02-02T10:32:29.459Z,6.60
2019-02-02T10:35:18.194Z,7.00
2019-02-02T10:38:06.873Z,6.50
2019-02-02T10:40:55.708Z,6.30
2019-02-02T10:43:43.725Z,6.40
2019-02-02T10:46:32.791Z,6.60
2019-02-02T10:49:21.328Z,7.93
2019-02-02T10:52:10.490Z,7.73
2019-02-02T10:54:58.689Z,6.90
2019-02-02T10:57:47.191Z,6.70
2019-02-02T11:00:37.522Z,7.27
2019-02-02T11:03:25.591Z,7.30
2019-02-02T11:06:13.665Z,6.50
2019-02-02T11:09:02.342Z,6.00
2019-02-02T11:11:50.493Z,6.77
2019-02-02T11:14:39.440Z,6.33
2019-02-02T11:17:27.880Z,6.10
2019-02-02T11:20:18.685Z,7.03
2019-02-02T11:23:07.443Z,6.90
2019-02-02T11:25:55.904Z,8.00
2019-02-02T11:28:43.928Z,6.93
2019-02-02T11:31:33.123Z,7.27
2019-02-02T11:34:21.428Z,8.07
2019-02-02T11:37:10.208Z,7.13
2019-02-02T11:39:58.682Z,8.00
2019-02-02T11:42:47.845Z,7.20
2019-02-02T11:45:36.270Z,6.77
2019-02-02T11:48:25.396Z,6.50
2019-02-02T11:51:14.018Z,5.87
2019-02-02T11:54:02.546Z,7.93
2019-02-02T11:56:51.248Z,7.40
2019-02-02T11:59:39.626Z,7.23
2019-02-02T12:02:28.614Z,9.23
2019-02-02T12:05:18.405Z,11.23
2019-02-02T12:08:07.294Z,14.33
2019-02-02T12:10:56.969Z,10.27
2019-02-02T12:13:45.091Z,10.27
2019-02-02T12:16:35.526Z,7.40
2019-02-02T12:19:25.188Z,8.00
2019-02-02T12:22:14.102Z,8.30
2019-02-02T12:25:03.748Z,6.77
2019-02-02T12:31:07.158Z,7.50
2019-02-02T12:34:04.926Z,10.30
2019-02-02T12:36:54.574Z,6.80
2019-02-02T12:39:46.794Z,6.93
2019-02-02T12:42:36.773Z,7.63
2019-02-02T12:45:35.853Z,6.47
2019-02-02T12:48:46.853Z,6.90
2019-02-02T12:51:35.498Z,5.60
2019-02-02T12:54:24.746Z,5.70
2019-02-02T12:57:14.445Z,5.23
2019-02-02T13:00:03.315Z,5.73
2019-02-02T13:02:52.789Z,11.40
2019-02-02T13:05:41.754Z,8.17
2019-02-02T13:08:30.712Z,7.03
2019-02-02T13:11:19.997Z,6.50
2019-02-02T13:14:10.571Z,8.10
2019-02-02T13:16:59.982Z,7.10
2019-02-02T13:19:54.644Z,9.87
2019-02-02T13:22:44.276Z,11.33
2019-02-02T13:25:32.990Z,8.17
2019-02-02T13:28:21.586Z,6.03
2019-02-02T13:31:09.816Z,5.90
2019-02-02T13:33:58.179Z,6.30
2019-02-02T13:36:48.445Z,5.80
2019-02-02T13:39:36.990Z,6.37
2019-02-02T13:42:25.832Z,5.67
2019-02-02T13:45:16.285Z,5.53
2019-02-02T13:48:05.216Z,5.70
2019-02-02T13:50:54.737Z,5.73
2019-02-02T13:53:43.557Z,9.50
2019-02-02T13:56:35.187Z,9.57
2019-02-02T13:59:24.147Z,9.07
2019-02-02T14:05:25.946Z,6.83
2019-02-02T14:08:14.800Z,6.10
2019-02-02T14:11:03.599Z,6.40
2019-02-02T14:13:52.708Z,6.10
2019-02-02T14:16:41.767Z,6.30
2019-02-02T14:19:30.123Z,6.97
2019-02-02T14:22:18.817Z,9.30
2019-02-02T14:25:07.981Z,11.27
2019-02-02T14:27:58.002Z,10.33
2019-02-02T14:30:47.282Z,7.03
2019-02-02T14:33:35.832Z,9.50
2019-02-02T14:36:24.581Z,7.23
2019-02-02T14:39:13.027Z,6.90
2019-02-02T14:42:01.334Z,6.40
2019-02-02T14:44:50.166Z,6.20
2019-02-02T14:47:38.600Z,5.97
2019-02-02T14:50:26.854Z,5.90
2019-02-02T14:53:16.641Z,6.20
2019-02-02T14:56:09.711Z,6.07
2019-02-02T14:58:58.996Z,6.77
2019-02-02T15:02:06.574Z,6.83
2019-02-02T15:04:55.158Z,7.43
2019-02-02T15:07:44.077Z,6.57
2019-02-02T15:10:33.442Z,6.80
2019-02-02T15:13:29.385Z,6.90
2019-02-02T15:16:17.546Z,7.37
2019-02-02T15:19:06.488Z,7.53
2019-02-02T15:21:54.565Z,7.40
2019-02-02T15:24:42.437Z,7.30
2019-02-02T15:27:31.459Z,7.90
2019-02-02T15:30:20.931Z,7.90
2019-02-02T15:33:09.021Z,7.37
2019-02-02T15:35:57.774Z,7.50
2019-02-02T15:38:49.868Z,7.10
2019-02-02T15:41:38.529Z,7.43
2019-02-02T15:44:27.313Z,12.90
2019-02-02T15:47:16.420Z,10.67
2019-02-02T15:50:18.391Z,9.13
2019-02-02T15:53:06.929Z,8.10
2019-02-02T15:55:55.924Z,7.90
2019-02-02T15:58:45.260Z,8.00
2019-02-02T16:01:33.702Z,7.47
2019-02-02T16:04:22.165Z,7.93
2019-02-02T16:07:11.431Z,7.70
2019-02-02T16:10:00.767Z,8.57
2019-02-02T16:12:55.596Z,7.97
2019-02-02T16:15:49.666Z,7.90
2019-02-02T16:18:44.182Z,8.97
2019-02-02T16:24:33.777Z,9.20
2019-02-02T16:27:21.998Z,9.60
2019-02-02T16:30:12.932Z,10.07
2019-02-02T16:33:01.272Z,11.37
2019-02-02T16:35:50.238Z,12.00
2019-02-02T16:38:39.439Z,12.20
2019-02-02T16:41:30.286Z,11.37
2019-02-02T16:44:22.037Z,10.87
2019-02-02T16:47:12.303Z,12.07
2019-02-02T16:50:01.916Z,11.37
2019-02-02T16:52:51.809Z,11.23
2019-02-02T16:55:42.588Z,12.07
2019-02-02T16:58:32.590Z,12.57
2019-02-02T17:01:21.496Z,13.57
2019-02-02T17:04:15.844Z,14.23
2019-02-02T17:07:06.136Z,14.60
2019-02-02T17:09:55.965Z,15.87
2019-02-02T17:12:46.562Z,15.60
2019-02-02T17:15:38.937Z,16.47
2019-02-02T17:18:27.968Z,17.13
2019-02-02T17:21:18.334Z,17.47
2019-02-02T17:24:09.520Z,18.10
2019-02-02T17:26:58.879Z,17.77
2019-02-02T17:29:48.477Z,18.53
2019-02-02T17:32:38.213Z,18.13
2019-02-02T17:35:28.255Z,19.37
2019-02-02T17:38:18.660Z,17.80
2019-02-02T17:41:09.373Z,20.93
2019-02-02T17:43:59.912Z,22.47
2019-02-02T17:46:48.988Z,22.57
2019-02-02T17:49:38.596Z,23.00
2019-02-02T17:52:27.977Z,22.60
2019-02-02T17:55:21.184Z,23.33
2019-02-02T17:58:13.341Z,25.13
2019-02-02T18:01:03.655Z,25.40
2019-02-02T18:03:56.059Z,25.13
2019-02-02T18:06:44.933Z,25.77
2019-02-02T18:09:59.280Z,25.93
2019-02-02T18:12:47.849Z,25.63
2019-02-02T18:15:35.957Z,25.87
2019-02-02T18:18:24.076Z,26.40
2019-02-02T18:21:14.211Z,27.27
2019-02-02T18:24:03.318Z,26.63
2019-02-02T18:26:52.060Z,28.03
2019-02-02T18:29:43.666Z,27.13
2019-02-02T18:32:31.918Z,26.30
2019-02-02T18:35:21.051Z,26.77
2019-02-02T18:38:09.582Z,26.70
2019-02-02T18:41:24.991Z,26.60
2019-02-02T18:44:13.964Z,25.70
2019-02-02T18:47:02.376Z,26.97
2019-02-02T18:49:51.269Z,25.43
2019-02-02T18:52:46.075Z,25.83
2019-02-02T18:55:47.040Z,26.50
2019-02-02T18:58:35.713Z,26.37
2019-02-02T19:01:24.577Z,25.57
2019-02-02T19:04:12.767Z,28.87
2019-02-02T19:07:01.277Z,27.30
2019-02-02T19:09:50.337Z,27.63
2019-02-02T19:12:38.896Z,26.30
2019-02-02T19:15:28.175Z,27.63
2019-02-02T19:18:17.930Z,27.03
2019-02-02T19:21:07.039Z,27.80
2019-02-02T19:23:56.367Z,27.70
2019-02-02T19:26:46.081Z,28.23
2019-02-02T19:29:35.144Z,28.37
2019-02-02T19:32:25.277Z,28.43
2019-02-02T19:35:16.271Z,27.97
2019-02-02T19:38:23.267Z,27.03
2019-02-02T19:41:12.541Z,29.70
2019-02-02T19:44:02.471Z,28.83
2019-02-02T19:46:51.127Z,29.30
2019-02-02T19:49:39.561Z,28.93
2019-02-02T19:52:28.161Z,30.10
2019-02-02T19:55:19.399Z,31.37
2019-02-02T19:58:07.682Z,30.67
2019-02-02T20:00:56.533Z,33.07
2019-02-02T20:03:47.392Z,33.47
2019-02-02T20:06:38.213Z,34.43
2019-02-02T20:12:34.715Z,35.93
2019-02-02T20:15:27.370Z,34.73
2019-02-02T20:18:16.116Z,36.10
2019-02-02T20:21:24.788Z,36.43
2019-02-02T20:24:13.150Z,33.70
2019-02-02T20:27:02.931Z,32.90
2019-02-02T20:29:53.819Z,31.10
2019-02-02T20:32:44.309Z,29.73
2019-02-02T20:35:40.824Z,29.67
2019-02-02T20:38:23.661Z,30.53
2019-02-02T20:41:12.731Z,31.20
2019-02-02T20:44:02.307Z,33.40
2019-02-02T20:46:55.002Z,32.97
2019-02-02T20:49:43.828Z,34.03
2019-02-02T20:52:33.113Z,33.50
2019-02-02T20:55:25.179Z,33.63
2019-02-02T20:58:14.581Z,34.93
2019-02-02T21:01:04.771Z,36.47
2019-02-02T21:03:55.342Z,36.93
2019-02-02T21:06:44.681Z,36.70
2019-02-02T21:09:33.953Z,34.73
2019-02-02T21:12:26.046Z,35.90
2019-02-02T21:15:15.247Z,37.93
2019-02-02T21:18:04.849Z,38.13
2019-02-02T21:20:54.195Z,37.33
2019-02-02T21:23:43.157Z,37.17
2019-02-02T21:26:32.391Z,36.57
2019-02-02T21:29:21.573Z,38.07
2019-02-02T21:32:10.982Z,38.70
2019-02-02T21:34:59.881Z,41.33
2019-02-02T21:37:51.858Z,43.63
2019-02-02T21:40:41.569Z,41.07
2019-02-02T21:43:30.056Z,41.60
2019-02-02T21:46:19.152Z,42.23
2019-02-02T21:49:07.874Z,40.77
2019-02-02T21:51:57.691Z,42.23
2019-02-02T21:54:47.778Z,42.70
2019-02-02T21:57:38.053Z,42.40
2019-02-02T22:00:35.861Z,41.17
2019-02-02T22:03:25.263Z,43.00
2019-02-02T22:06:15.556Z,41.23
2019-02-02T22:09:06.509Z,41.53
2019-02-02T22:11:55.732Z,45.03
2019-02-02T22:14:43.992Z,43.27
2019-02-02T22:17:32.855Z,44.37
2019-02-02T22:20:21.983Z,43.70
2019-02-02T22:23:10.924Z,45.10
2019-02-02T22:26:00.237Z,44.53
2019-02-02T22:28:49.403Z,45.10
2019-02-02T22:31:38.715Z,42.57
2019-02-02T22:34:27.298Z,43.17
2019-02-02T22:37:15.386Z,42.87
2019-02-02T22:40:05.811Z,41.90
2019-02-02T22:42:55.041Z,43.33
2019-02-02T22:45:43.893Z,43.27
2019-02-02T22:48:33.106Z,43.67
2019-02-02T22:51:23.986Z,44.90
2019-02-02T22:54:13.447Z,43.43
2019-02-02T22:57:02.067Z,44.13
2019-02-02T22:59:50.790Z,44.17
2019-02-02T23:02:38.977Z,44.67
2019-02-02T23:05:50.440Z,44.37
2019-02-02T23:09:13.209Z,43.27
2019-02-02T23:12:29.362Z,46.07
2019-02-02T23:16:04.903Z,43.00
2019-02-02T23:18:54.685Z,46.43
2019-02-02T23:21:44.052Z,48.77
2019-02-02T23:24:33.155Z,46.57
2019-02-02T23:27:22.528Z,43.40
2019-02-02T23:30:12.217Z,44.03
2019-02-02T23:33:01.421Z,49.30
2019-02-02T23:35:50.399Z,44.20
2019-02-02T23:38:39.203Z,50.13
2019-02-02T23:41:28.450Z,43.20
2019-02-02T23:44:17.653Z,48.83
2019-02-02T23:47:18.277Z,48.10
2019-02-02T23:50:07.292Z,49.50
2019-02-02T23:52:57.590Z,53.23
2019-02-02T23:55:46.881Z,52.77
2019-02-02T23:59:14.394Z,51.27
